Airport ID:KGOO
Update Time (UTC):25/07/2021 11:30
Wind Speed (Knots):0
Wind Direction (Magnetic):70
Temperature (°C):25
Dew Point (°C):4
Humidity (%):25
Altimeter (inHg):30.03
Density Altitude (Feet):5000
Visibility:10+
Clouds (Hundreds of feet):OVC048
Present Weather:
METAR:METAR KGOO 251125Z AUTO 00000KT 10SM OVC048 25/03 A3003 RMK A01

The data displayed is for advisory purposes only and is not to be used for flight planning or operations.